sensor_id;sensor_type;location;lat;lon;timestamp;pressure;altitude;pressure_sealevel;temperature;humidity
41688;BME280;27371;42.686;23.362;2023-06-14T00:02:55;166730.97;;;17.36;100.00
41688;BME280;27371;42.686;23.362;2023-06-14T00:05:21;166712.22;;;17.29;100.00
41688;BME280;27371;42.686;23.362;2023-06-14T00:07:48;166717.56;;;17.31;100.00
41688;BME280;27371;42.686;23.362;2023-06-14T00:10:14;166698.81;;;17.24;100.00
41688;BME280;27371;42.686;23.362;2023-06-14T00:12:40;166702.81;;;17.25;100.00
41688;BME280;27371;42.686;23.362;2023-06-14T00:15:07;166698.81;;;17.24;100.00
41688;BME280;27371;42.686;23.362;2023-06-14T00:17:35;166684.06;;;17.18;100.00
41688;BME280;27371;42.686;23.362;2023-06-14T00:20:03;166698.81;;;17.24;100.00
41688;BME280;27371;42.686;23.362;2023-06-14T00:22:31;166678.69;;;17.16;100.00
41688;BME280;27371;42.686;23.362;2023-06-14T00:24:58;166688.03;;;17.20;100.00
41688;BME280;27371;42.686;23.362;2023-06-14T00:27:23;166676.00;;;17.15;100.00
41688;BME280;27371;42.686;23.362;2023-06-14T00:29:50;166676.00;;;17.15;100.00
41688;BME280;27371;42.686;23.362;2023-06-14T00:32:15;166678.69;;;17.16;100.00
41688;BME280;27371;42.686;23.362;2023-06-14T00:34:40;166670.63;;;17.13;100.00
41688;BME280;27371;42.686;23.362;2023-06-14T00:37:06;166663.91;;;17.10;100.00
41688;BME280;27371;42.686;23.362;2023-06-14T00:39:31;166611.63;;;16.90;100.00
41688;BME280;27371;42.686;23.362;2023-06-14T00:41:57;166650.50;;;17.05;100.00
41688;BME280;27371;42.686;23.362;2023-06-14T00:44:24;166673.28;;;17.14;100.00
41688;BME280;27371;42.686;23.362;2023-06-14T00:46:49;166658.53;;;17.08;100.00
41688;BME280;27371;42.686;23.362;2023-06-14T00:49:16;166659.88;;;17.09;100.00
41688;BME280;27371;42.686;23.362;2023-06-14T00:51:43;166651.84;;;17.06;100.00
41688;BME280;27371;42.686;23.362;2023-06-14T00:54:08;166657.22;;;17.08;100.00
41688;BME280;27371;42.686;23.362;2023-06-14T00:56:38;166674.63;;;17.14;100.00
41688;BME280;27371;42.686;23.362;2023-06-14T00:59:04;166680.00;;;17.17;100.00
41688;BME280;27371;42.686;23.362;2023-06-14T01:01:31;166646.50;;;17.04;100.00
41688;BME280;27371;42.686;23.362;2023-06-14T01:04:00;166681.34;;;17.17;100.00
41688;BME280;27371;42.686;23.362;2023-06-14T01:12:46;166674.63;;;17.14;100.00
41688;BME280;27371;42.686;23.362;2023-06-14T01:15:01;166676.00;;;17.15;100.00
41688;BME280;27371;42.686;23.362;2023-06-14T01:17:28;166594.16;;;16.84;100.00
41688;BME280;27371;42.686;23.362;2023-06-14T01:19:58;166674.63;;;17.14;100.00
41688;BME280;27371;42.686;23.362;2023-06-14T01:22:28;166686.72;;;17.19;100.00
41688;BME280;27371;42.686;23.362;2023-06-14T01:24:53;166686.72;;;17.19;100.00
41688;BME280;27371;42.686;23.362;2023-06-14T01:27:29;166667.97;;;17.12;100.00
41688;BME280;27371;42.686;23.362;2023-06-14T01:29:55;166694.75;;;17.22;100.00
41688;BME280;27371;42.686;23.362;2023-06-14T01:32:24;166688.03;;;17.20;100.00
41688;BME280;27371;42.686;23.362;2023-06-14T01:34:51;166667.97;;;17.12;100.00
41688;BME280;27371;42.686;23.362;2023-06-14T01:37:18;166680.00;;;17.17;100.00
41688;BME280;27371;42.686;23.362;2023-06-14T01:39:44;166700.13;;;17.24;100.00
41688;BME280;27371;42.686;23.362;2023-06-14T01:42:10;166684.06;;;17.18;100.00
41688;BME280;27371;42.686;23.362;2023-06-14T01:44:38;166697.47;;;17.23;100.00
41688;BME280;27371;42.686;23.362;2023-06-14T01:47:05;166681.34;;;17.17;100.00
41688;BME280;27371;42.686;23.362;2023-06-14T01:49:33;166698.81;;;17.24;100.00
41688;BME280;27371;42.686;23.362;2023-06-14T01:52:00;166696.09;;;17.23;100.00
41688;BME280;27371;42.686;23.362;2023-06-14T01:54:26;166706.84;;;17.27;100.00
41688;BME280;27371;42.686;23.362;2023-06-14T01:56:52;166684.06;;;17.18;100.00
41688;BME280;27371;42.686;23.362;2023-06-14T01:59:18;166665.25;;;17.11;100.00
41688;BME280;27371;42.686;23.362;2023-06-14T02:01:43;166657.22;;;17.08;100.00
41688;BME280;27371;42.686;23.362;2023-06-14T02:04:09;166676.00;;;17.15;100.00
41688;BME280;27371;42.686;23.362;2023-06-14T02:06:35;166649.16;;;17.05;100.00
41688;BME280;27371;42.686;23.362;2023-06-14T02:09:01;166658.53;;;17.08;100.00
41688;BME280;27371;42.686;23.362;2023-06-14T02:11:27;166646.50;;;17.04;100.00
41688;BME280;27371;42.686;23.362;2023-06-14T02:13:53;166643.78;;;17.03;100.00
41688;BME280;27371;42.686;23.362;2023-06-14T02:16:20;166643.78;;;17.03;100.00
41688;BME280;27371;42.686;23.362;2023-06-14T02:18:45;166633.09;;;16.99;100.00
41688;BME280;27371;42.686;23.362;2023-06-14T02:21:11;166642.47;;;17.02;100.00
41688;BME280;27371;42.686;23.362;2023-06-14T02:23:37;166630.38;;;16.98;100.00
41688;BME280;27371;42.686;23.362;2023-06-14T02:26:03;166629.03;;;16.97;100.00
41688;BME280;27371;42.686;23.362;2023-06-14T02:28:28;166641.13;;;17.02;100.00
41688;BME280;27371;42.686;23.362;2023-06-14T02:30:54;166638.41;;;17.01;100.00
41688;BME280;27371;42.686;23.362;2023-06-14T02:33:19;166631.75;;;16.98;100.00
41688;BME280;27371;42.686;23.362;2023-06-14T02:35:45;166638.41;;;17.01;100.00
41688;BME280;27371;42.686;23.362;2023-06-14T02:38:11;166651.84;;;17.06;100.00
41688;BME280;27371;42.686;23.362;2023-06-14T02:40:37;166651.84;;;17.06;100.00
41688;BME280;27371;42.686;23.362;2023-06-14T02:43:02;166623.66;;;16.95;100.00
41688;BME280;27371;42.686;23.362;2023-06-14T02:45:28;166631.75;;;16.98;100.00
41688;BME280;27371;42.686;23.362;2023-06-14T02:47:53;166633.09;;;16.99;100.00
41688;BME280;27371;42.686;23.362;2023-06-14T02:50:20;166587.47;;;16.81;100.00
41688;BME280;27371;42.686;23.362;2023-06-14T02:52:46;166629.03;;;16.97;100.00
41688;BME280;27371;42.686;23.362;2023-06-14T02:55:12;166615.63;;;16.92;100.00
41688;BME280;27371;42.686;23.362;2023-06-14T02:57:38;166619.66;;;16.94;100.00
41688;BME280;27371;42.686;23.362;2023-06-14T03:00:04;166611.63;;;16.90;100.00
41688;BME280;27371;42.686;23.362;2023-06-14T03:02:30;166604.91;;;16.88;100.00
41688;BME280;27371;42.686;23.362;2023-06-14T03:04:55;166610.28;;;16.90;100.00
41688;BME280;27371;42.686;23.362;2023-06-14T03:07:21;166604.91;;;16.88;100.00
41688;BME280;27371;42.686;23.362;2023-06-14T03:09:48;166600.88;;;16.86;100.00
41688;BME280;27371;42.686;23.362;2023-06-14T03:12:14;166531.13;;;16.60;100.00
41688;BME280;27371;42.686;23.362;2023-06-14T03:14:40;166547.19;;;16.66;100.00
41688;BME280;27371;42.686;23.362;2023-06-14T03:17:07;166545.88;;;16.65;100.00
41688;BME280;27371;42.686;23.362;2023-06-14T03:19:33;166545.88;;;16.65;100.00
41688;BME280;27371;42.686;23.362;2023-06-14T03:21:59;166543.16;;;16.64;100.00
41688;BME280;27371;42.686;23.362;2023-06-14T03:24:25;166553.91;;;16.68;100.00
41688;BME280;27371;42.686;23.362;2023-06-14T03:26:53;166552.56;;;16.68;100.00
41688;BME280;27371;42.686;23.362;2023-06-14T03:29:18;166560.63;;;16.71;100.00
41688;BME280;27371;42.686;23.362;2023-06-14T03:32:00;166574.03;;;16.76;100.00
41688;BME280;27371;42.686;23.362;2023-06-14T03:34:26;166561.94;;;16.72;100.00
41688;BME280;27371;42.686;23.362;2023-06-14T03:36:52;166559.25;;;16.70;100.00
41688;BME280;27371;42.686;23.362;2023-06-14T03:39:18;166580.75;;;16.79;100.00
41688;BME280;27371;42.686;23.362;2023-06-14T03:41:44;166571.31;;;16.75;100.00
41688;BME280;27371;42.686;23.362;2023-06-14T03:44:10;166599.53;;;16.86;100.00
41688;BME280;27371;42.686;23.362;2023-06-14T03:46:35;166584.78;;;16.80;100.00
41688;BME280;27371;42.686;23.362;2023-06-14T03:49:01;166586.13;;;16.81;100.00
41688;BME280;27371;42.686;23.362;2023-06-14T03:51:28;166521.69;;;16.56;100.00
41688;BME280;27371;42.686;23.362;2023-06-14T03:53:54;166579.41;;;16.78;100.00
41688;BME280;27371;42.686;23.362;2023-06-14T03:56:21;166600.88;;;16.86;100.00
41688;BME280;27371;42.686;23.362;2023-06-14T03:58:46;166592.84;;;16.83;100.00
41688;BME280;27371;42.686;23.362;2023-06-14T04:01:12;166588.84;;;16.82;100.00
41688;BME280;27371;42.686;23.362;2023-06-14T04:03:38;166627.72;;;16.97;100.00
41688;BME280;27371;42.686;23.362;2023-06-14T04:06:05;166626.38;;;16.96;100.00
41688;BME280;27371;42.686;23.362;2023-06-14T04:08:31;166626.38;;;16.96;100.00
41688;BME280;27371;42.686;23.362;2023-06-14T04:11:00;166649.16;;;17.05;100.00
41688;BME280;27371;42.686;23.362;2023-06-14T04:13:26;166661.25;;;17.09;100.00
41688;BME280;27371;42.686;23.362;2023-06-14T04:15:51;166680.00;;;17.17;100.00
41688;BME280;27371;42.686;23.362;2023-06-14T04:18:17;166700.13;;;17.24;100.00
41688;BME280;27371;42.686;23.362;2023-06-14T04:20:43;166704.19;;;17.26;99.15
41688;BME280;27371;42.686;23.362;2023-06-14T04:23:16;166743.06;;;17.41;98.97
41688;BME280;27371;42.686;23.362;2023-06-14T04:25:43;166823.56;;;17.71;98.79
41688;BME280;27371;42.686;23.362;2023-06-14T04:28:14;166936.34;;;18.14;95.14
41688;BME280;27371;42.686;23.362;2023-06-14T04:30:43;167022.25;;;18.47;93.74
41688;BME280;27371;42.686;23.362;2023-06-14T04:33:10;167094.78;;;18.75;91.66
41688;BME280;27371;42.686;23.362;2023-06-14T04:35:36;167186.06;;;19.09;90.00
41688;BME280;27371;42.686;23.362;2023-06-14T04:38:02;167288.09;;;19.48;87.64
41688;BME280;27371;42.686;23.362;2023-06-14T04:40:30;167324.34;;;19.62;84.56
41688;BME280;27371;42.686;23.362;2023-06-14T04:42:58;167362.00;;;19.76;83.72
41688;BME280;27371;42.686;23.362;2023-06-14T04:45:24;167355.34;;;19.74;82.43
41688;BME280;27371;42.686;23.362;2023-06-14T04:47:58;167345.91;;;19.70;82.69
41688;BME280;27371;42.686;23.362;2023-06-14T04:50:24;167336.50;;;19.67;82.01
41688;BME280;27371;42.686;23.362;2023-06-14T04:52:50;167332.41;;;19.65;82.60
41688;BME280;27371;42.686;23.362;2023-06-14T04:55:17;167336.50;;;19.67;83.11
41688;BME280;27371;42.686;23.362;2023-06-14T04:57:44;167293.47;;;19.50;82.15
41688;BME280;27371;42.686;23.362;2023-06-14T05:00:10;167231.69;;;19.27;82.55
41688;BME280;27371;42.686;23.362;2023-06-14T05:02:36;167133.69;;;18.89;83.37
41688;BME280;27371;42.686;23.362;2023-06-14T05:05:03;167086.63;;;18.72;83.58
41688;BME280;27371;42.686;23.362;2023-06-14T05:07:32;167073.25;;;18.66;82.87
41688;BME280;27371;42.686;23.362;2023-06-14T05:09:59;167086.63;;;18.72;83.84
41688;BME280;27371;42.686;23.362;2023-06-14T05:12:24;167124.31;;;18.86;85.13
41688;BME280;27371;42.686;23.362;2023-06-14T05:14:50;167153.84;;;18.97;85.08
41688;BME280;27371;42.686;23.362;2023-06-14T05:17:15;167147.13;;;18.95;84.31
41688;BME280;27371;42.686;23.362;2023-06-14T05:19:42;167131.03;;;18.88;84.55
41688;BME280;27371;42.686;23.362;2023-06-14T05:22:08;167140.41;;;18.92;84.43
41688;BME280;27371;42.686;23.362;2023-06-14T05:24:33;167176.66;;;19.06;83.41
41688;BME280;27371;42.686;23.362;2023-06-14T05:26:59;167116.22;;;18.83;83.42
41688;BME280;27371;42.686;23.362;2023-06-14T05:29:24;167180.66;;;19.07;83.63
41688;BME280;27371;42.686;23.362;2023-06-14T05:31:51;167184.72;;;19.09;84.07
41688;BME280;27371;42.686;23.362;2023-06-14T05:34:16;167190.09;;;19.11;83.96
41688;BME280;27371;42.686;23.362;2023-06-14T05:36:42;167215.59;;;19.21;83.92
41688;BME280;27371;42.686;23.362;2023-06-14T05:39:08;167204.88;;;19.17;83.60
41688;BME280;27371;42.686;23.362;2023-06-14T05:41:34;167131.03;;;18.88;81.55
41688;BME280;27371;42.686;23.362;2023-06-14T05:44:01;167075.94;;;18.67;83.70
41688;BME280;27371;42.686;23.362;2023-06-14T05:46:26;167085.31;;;18.71;85.26
41688;BME280;27371;42.686;23.362;2023-06-14T05:48:53;167054.44;;;18.59;85.67
41688;BME280;27371;42.686;23.362;2023-06-14T05:51:19;167065.16;;;18.63;86.03
41688;BME280;27371;42.686;23.362;2023-06-14T05:53:48;167085.31;;;18.71;86.28
41688;BME280;27371;42.686;23.362;2023-06-14T05:56:15;167114.88;;;18.82;86.54
41688;BME280;27371;42.686;23.362;2023-06-14T05:58:40;167149.81;;;18.96;87.20
41688;BME280;27371;42.686;23.362;2023-06-14T06:01:06;167178.00;;;19.06;87.30
41688;BME280;27371;42.686;23.362;2023-06-14T06:03:32;167207.53;;;19.18;86.81
41688;BME280;27371;42.686;23.362;2023-06-14T06:05:58;167212.91;;;19.20;85.90
41688;BME280;27371;42.686;23.362;2023-06-14T06:08:23;167237.06;;;19.29;84.22
41688;BME280;27371;42.686;23.362;2023-06-14T06:10:49;167230.34;;;19.26;83.96
41688;BME280;27371;42.686;23.362;2023-06-14T06:13:14;167249.19;;;19.33;84.37
41688;BME280;27371;42.686;23.362;2023-06-14T06:15:40;167233.06;;;19.27;84.47
41688;BME280;27371;42.686;23.362;2023-06-14T06:18:06;167211.59;;;19.19;84.60
41688;BME280;27371;42.686;23.362;2023-06-14T06:20:32;167225.03;;;19.24;84.13
41688;BME280;27371;42.686;23.362;2023-06-14T06:22:58;167216.91;;;19.21;83.88
41688;BME280;27371;42.686;23.362;2023-06-14T06:25:27;167269.34;;;19.41;83.51
41688;BME280;27371;42.686;23.362;2023-06-14T06:27:54;167296.16;;;19.51;82.37
41688;BME280;27371;42.686;23.362;2023-06-14T06:30:21;167310.91;;;19.57;82.38
41688;BME280;27371;42.686;23.362;2023-06-14T06:32:46;167314.97;;;19.58;81.62
41688;BME280;27371;42.686;23.362;2023-06-14T06:35:12;167329.75;;;19.64;81.16
41688;BME280;27371;42.686;23.362;2023-06-14T06:37:38;167340.50;;;19.68;81.61
41688;BME280;27371;42.686;23.362;2023-06-14T06:40:05;167324.34;;;19.62;82.28
41688;BME280;27371;42.686;23.362;2023-06-14T06:42:31;167355.34;;;19.74;81.42
41688;BME280;27371;42.686;23.362;2023-06-14T06:44:57;167333.84;;;19.66;81.59
41688;BME280;27371;42.686;23.362;2023-06-14T06:47:23;167343.22;;;19.69;80.87
41688;BME280;27371;42.686;23.362;2023-06-14T06:49:49;167349.94;;;19.72;80.80
41688;BME280;27371;42.686;23.362;2023-06-14T06:52:14;167362.00;;;19.76;80.77
41688;BME280;27371;42.686;23.362;2023-06-14T06:54:40;167352.63;;;19.73;80.59
41688;BME280;27371;42.686;23.362;2023-06-14T06:57:06;167325.69;;;19.63;80.97
41688;BME280;27371;42.686;23.362;2023-06-14T06:59:32;167306.91;;;19.55;81.36
41688;BME280;27371;42.686;23.362;2023-06-14T07:01:58;167293.47;;;19.50;81.58
41688;BME280;27371;42.686;23.362;2023-06-14T07:04:23;167316.31;;;19.59;81.79
41688;BME280;27371;42.686;23.362;2023-06-14T07:06:49;167323.03;;;19.62;81.53
41688;BME280;27371;42.686;23.362;2023-06-14T07:09:14;167317.63;;;19.59;80.64
41688;BME280;27371;42.686;23.362;2023-06-14T07:11:44;167305.59;;;19.55;80.77
41688;BME280;27371;42.686;23.362;2023-06-14T07:14:09;167316.31;;;19.59;81.22
41688;BME280;27371;42.686;23.362;2023-06-14T07:16:35;167296.16;;;19.51;80.69
41688;BME280;27371;42.686;23.362;2023-06-14T07:19:02;167375.44;;;19.82;80.96
41688;BME280;27371;42.686;23.362;2023-06-14T07:21:27;167409.03;;;19.94;80.67
41688;BME280;27371;42.686;23.362;2023-06-14T07:23:53;167460.09;;;20.14;80.42
41688;BME280;27371;42.686;23.362;2023-06-14T07:26:19;167492.31;;;20.26;78.63
41688;BME280;27371;42.686;23.362;2023-06-14T07:28:46;167618.69;;;20.74;77.96
41688;BME280;27371;42.686;23.362;2023-06-14T07:31:13;167700.66;;;21.05;76.22
41688;BME280;27371;42.686;23.362;2023-06-14T07:33:39;167801.50;;;21.44;74.73
41688;BME280;27371;42.686;23.362;2023-06-14T07:36:05;167929.25;;;21.92;71.92
41688;BME280;27371;42.686;23.362;2023-06-14T07:38:30;167968.22;;;22.07;72.51
41688;BME280;27371;42.686;23.362;2023-06-14T07:40:56;168078.53;;;22.49;70.91
41688;BME280;27371;42.686;23.362;2023-06-14T07:43:22;168122.91;;;22.66;69.56
41688;BME280;27371;42.686;23.362;2023-06-14T07:45:47;168191.53;;;22.92;67.19
41688;BME280;27371;42.686;23.362;2023-06-14T07:48:13;168215.78;;;23.01;65.66
41688;BME280;27371;42.686;23.362;2023-06-14T07:50:39;168218.50;;;23.02;65.75
41688;BME280;27371;42.686;23.362;2023-06-14T07:53:04;168285.78;;;23.28;64.92
41688;BME280;27371;42.686;23.362;2023-06-14T07:55:30;168311.31;;;23.38;63.25
41688;BME280;27371;42.686;23.362;2023-06-14T07:57:58;168363.81;;;23.58;61.44
41688;BME280;27371;42.686;23.362;2023-06-14T08:00:23;168394.75;;;23.69;62.04
41688;BME280;27371;42.686;23.362;2023-06-14T08:02:49;168435.19;;;23.85;62.03
41688;BME280;27371;42.686;23.362;2023-06-14T08:05:16;168367.81;;;23.59;61.47
41688;BME280;27371;42.686;23.362;2023-06-14T08:07:42;168363.81;;;23.58;62.53
41688;BME280;27371;42.686;23.362;2023-06-14T08:10:08;168328.81;;;23.44;62.35
41688;BME280;27371;42.686;23.362;2023-06-14T08:12:33;168304.63;;;23.35;62.13
41688;BME280;27371;42.686;23.362;2023-06-14T08:14:59;168268.28;;;23.21;62.55
41688;BME280;27371;42.686;23.362;2023-06-14T08:17:25;168222.53;;;23.04;62.32
41688;BME280;27371;42.686;23.362;2023-06-14T08:19:52;168171.34;;;22.84;64.13
41688;BME280;27371;42.686;23.362;2023-06-14T08:22:20;168092.00;;;22.54;63.82
41688;BME280;27371;42.686;23.362;2023-06-14T08:24:47;168109.50;;;22.61;63.90
41688;BME280;27371;42.686;23.362;2023-06-14T08:27:12;168094.72;;;22.55;64.41
41688;BME280;27371;42.686;23.362;2023-06-14T08:29:38;168102.78;;;22.58;63.81
41688;BME280;27371;42.686;23.362;2023-06-14T08:32:06;168132.38;;;22.70;63.35
41688;BME280;27371;42.686;23.362;2023-06-14T08:34:31;168126.97;;;22.67;63.35
41688;BME280;27371;42.686;23.362;2023-06-14T08:36:57;168191.53;;;22.92;63.16
41688;BME280;27371;42.686;23.362;2023-06-14T08:39:23;168226.59;;;23.05;63.70
41688;BME280;27371;42.686;23.362;2023-06-14T08:41:48;168269.63;;;23.22;62.11
41688;BME280;27371;42.686;23.362;2023-06-14T08:44:16;168281.72;;;23.26;61.57
41688;BME280;27371;42.686;23.362;2023-06-14T08:46:42;168272.31;;;23.23;61.09
41688;BME280;27371;42.686;23.362;2023-06-14T08:49:11;168318.03;;;23.40;60.94
41688;BME280;27371;42.686;23.362;2023-06-14T08:51:38;168240.03;;;23.10;60.30
41688;BME280;27371;42.686;23.362;2023-06-14T08:54:06;168319.41;;;23.41;60.35
41688;BME280;27371;42.686;23.362;2023-06-14T08:56:32;168353.03;;;23.53;58.96
41688;BME280;27371;42.686;23.362;2023-06-14T08:59:00;168433.81;;;23.84;57.21
41688;BME280;27371;42.686;23.362;2023-06-14T09:01:33;168425.75;;;23.81;57.23
41688;BME280;27371;42.686;23.362;2023-06-14T09:03:59;168435.19;;;23.85;58.16
41688;BME280;27371;42.686;23.362;2023-06-14T09:06:25;168444.59;;;23.88;58.26
41688;BME280;27371;42.686;23.362;2023-06-14T09:08:51;168394.75;;;23.69;58.64
41688;BME280;27371;42.686;23.362;2023-06-14T09:11:19;168362.47;;;23.57;58.92
41688;BME280;27371;42.686;23.362;2023-06-14T09:13:45;168386.69;;;23.66;59.68
41688;BME280;27371;42.686;23.362;2023-06-14T09:16:11;168382.63;;;23.65;59.35
41688;BME280;27371;42.686;23.362;2023-06-14T09:18:42;168381.28;;;23.64;60.11
41688;BME280;27371;42.686;23.362;2023-06-14T09:21:13;168363.81;;;23.58;59.47
41688;BME280;27371;42.686;23.362;2023-06-14T09:23:40;168388.03;;;23.67;59.02
41688;BME280;27371;42.686;23.362;2023-06-14T09:26:13;168431.16;;;23.83;58.88
41688;BME280;27371;42.686;23.362;2023-06-14T09:28:45;168419.00;;;23.78;58.04
41688;BME280;27371;42.686;23.362;2023-06-14T09:31:15;168401.53;;;23.72;57.83
41688;BME280;27371;42.686;23.362;2023-06-14T09:34:02;168404.22;;;23.73;57.51
41688;BME280;27371;42.686;23.362;2023-06-14T09:36:27;168365.16;;;23.58;57.69
41688;BME280;27371;42.686;23.362;2023-06-14T09:38:55;168402.88;;;23.72;57.95
41688;BME280;27371;42.686;23.362;2023-06-14T09:41:30;168436.53;;;23.85;56.69
41688;BME280;27371;42.686;23.362;2023-06-14T09:43:55;168484.94;;;24.04;56.22
41688;BME280;27371;42.686;23.362;2023-06-14T09:46:22;168463.41;;;23.95;55.44
41688;BME280;27371;42.686;23.362;2023-06-14T09:48:48;168514.56;;;24.15;55.97
41688;BME280;27371;42.686;23.362;2023-06-14T09:51:15;168560.34;;;24.32;55.96
41688;BME280;27371;42.686;23.362;2023-06-14T09:53:43;168522.69;;;24.18;54.92
41688;BME280;27371;42.686;23.362;2023-06-14T09:56:10;168502.47;;;24.10;55.88
41688;BME280;27371;42.686;23.362;2023-06-14T09:58:39;168505.16;;;24.11;56.16
41688;BME280;27371;42.686;23.362;2023-06-14T10:01:08;168479.59;;;24.02;54.93
41688;BME280;27371;42.686;23.362;2023-06-14T10:03:34;168514.56;;;24.15;54.86
41688;BME280;27371;42.686;23.362;2023-06-14T10:06:02;168519.97;;;24.17;54.79
41688;BME280;27371;42.686;23.362;2023-06-14T10:08:30;168604.81;;;24.49;55.06
41688;BME280;27371;42.686;23.362;2023-06-14T10:10:58;168603.50;;;24.49;54.11
41688;BME280;27371;42.686;23.362;2023-06-14T10:13:26;168602.16;;;24.48;53.24
41688;BME280;27371;42.686;23.362;2023-06-14T10:16:07;168568.44;;;24.35;54.30
41688;BME280;27371;42.686;23.362;2023-06-14T10:18:47;168573.81;;;24.37;55.20
41688;BME280;27371;42.686;23.362;2023-06-14T10:24:06;168561.69;;;24.33;54.05
41688;BME280;27371;42.686;23.362;2023-06-14T10:26:32;168646.56;;;24.65;53.99
41688;BME280;27371;42.686;23.362;2023-06-14T10:29:08;168673.47;;;24.75;53.80
41688;BME280;27371;42.686;23.362;2023-06-14T10:31:44;168716.53;;;24.92;51.82
41688;BME280;27371;42.686;23.362;2023-06-14T10:34:11;168633.09;;;24.60;52.94
41688;BME280;27371;42.686;23.362;2023-06-14T10:36:38;168540.16;;;24.25;53.51
41688;BME280;27371;42.686;23.362;2023-06-14T10:39:18;168513.22;;;24.14;53.03
41688;BME280;27371;42.686;23.362;2023-06-14T10:41:53;168397.44;;;23.70;54.19
41688;BME280;27371;42.686;23.362;2023-06-14T10:46:49;168420.34;;;23.79;55.16
41688;BME280;27371;42.686;23.362;2023-06-14T10:49:18;168452.69;;;23.91;54.38
41688;BME280;27371;42.686;23.362;2023-06-14T10:51:49;168486.34;;;24.04;54.63
41688;BME280;27371;42.686;23.362;2023-06-14T10:54:16;168478.22;;;24.01;54.65
41688;BME280;27371;42.686;23.362;2023-06-14T10:56:48;168464.81;;;23.96;54.49
41688;BME280;27371;42.686;23.362;2023-06-14T10:59:15;168459.41;;;23.94;54.81
41688;BME280;27371;42.686;23.362;2023-06-14T11:04:51;168557.63;;;24.31;53.48
41688;BME280;27371;42.686;23.362;2023-06-14T11:12:59;168540.16;;;24.25;53.94
41688;BME280;27371;42.686;23.362;2023-06-14T11:15:31;168550.91;;;24.29;53.43
41688;BME280;27371;42.686;23.362;2023-06-14T11:17:59;168602.16;;;24.48;52.69
41688;BME280;27371;42.686;23.362;2023-06-14T11:20:26;168660.03;;;24.70;53.05
41688;BME280;27371;42.686;23.362;2023-06-14T11:22:53;168734.06;;;24.98;53.60
41688;BME280;27371;42.686;23.362;2023-06-14T11:25:19;168773.13;;;25.13;52.09
41688;BME280;27371;42.686;23.362;2023-06-14T11:27:45;168747.56;;;25.03;51.64
41688;BME280;27371;42.686;23.362;2023-06-14T11:30:13;168790.69;;;25.20;51.49
41688;BME280;27371;42.686;23.362;2023-06-14T11:32:39;168813.56;;;25.28;50.61
41688;BME280;27371;42.686;23.362;2023-06-14T11:35:05;168805.50;;;25.25;50.51
41688;BME280;27371;42.686;23.362;2023-06-14T11:37:31;168808.19;;;25.26;50.76
41688;BME280;27371;42.686;23.362;2023-06-14T11:40:00;168790.69;;;25.20;50.50
41688;BME280;27371;42.686;23.362;2023-06-14T11:42:27;168701.75;;;24.86;51.63
41688;BME280;27371;42.686;23.362;2023-06-14T11:44:54;168734.06;;;24.98;51.64
41688;BME280;27371;42.686;23.362;2023-06-14T11:47:20;168732.75;;;24.98;52.23
41688;BME280;27371;42.686;23.362;2023-06-14T11:49:46;168762.38;;;25.09;51.28
41688;BME280;27371;42.686;23.362;2023-06-14T11:52:12;168732.75;;;24.98;51.55
41688;BME280;27371;42.686;23.362;2023-06-14T11:54:38;168688.28;;;24.81;51.39
41688;BME280;27371;42.686;23.362;2023-06-14T11:57:06;168638.50;;;24.62;51.77
41688;BME280;27371;42.686;23.362;2023-06-14T11:59:32;168620.97;;;24.55;51.13
41688;BME280;27371;42.686;23.362;2023-06-14T12:02:03;168623.63;;;24.56;51.50
41688;BME280;27371;42.686;23.362;2023-06-14T12:04:29;168651.91;;;24.67;51.42
41688;BME280;27371;42.686;23.362;2023-06-14T12:06:55;168655.97;;;24.69;51.62
41688;BME280;27371;42.686;23.362;2023-06-14T12:09:23;168643.84;;;24.64;51.34
41688;BME280;27371;42.686;23.362;2023-06-14T12:11:49;168720.59;;;24.93;50.33
41688;BME280;27371;42.686;23.362;2023-06-14T12:14:15;168730.00;;;24.97;50.86
41688;BME280;27371;42.686;23.362;2023-06-14T12:16:41;168738.09;;;25.00;50.33
41688;BME280;27371;42.686;23.362;2023-06-14T12:19:17;168726.00;;;24.95;50.92
41688;BME280;27371;42.686;23.362;2023-06-14T12:21:43;168715.22;;;24.91;49.69
41688;BME280;27371;42.686;23.362;2023-06-14T12:24:13;168695.00;;;24.83;49.73
41688;BME280;27371;42.686;23.362;2023-06-14T12:26:39;168744.81;;;25.02;49.96
41688;BME280;27371;42.686;23.362;2023-06-14T12:29:06;168759.63;;;25.08;49.81
41688;BME280;27371;42.686;23.362;2023-06-14T12:31:32;168724.63;;;24.95;50.80
41688;BME280;27371;42.686;23.362;2023-06-14T12:33:58;168701.75;;;24.86;50.63
41688;BME280;27371;42.686;23.362;2023-06-14T12:36:24;168699.06;;;24.85;50.22
41688;BME280;27371;42.686;23.362;2023-06-14T12:38:51;168711.19;;;24.89;49.92
41688;BME280;27371;42.686;23.362;2023-06-14T12:41:19;168743.50;;;25.02;50.08
41688;BME280;27371;42.686;23.362;2023-06-14T12:43:46;168715.22;;;24.91;50.55
41688;BME280;27371;42.686;23.362;2023-06-14T12:46:12;168708.47;;;24.88;51.08
41688;BME280;27371;42.686;23.362;2023-06-14T12:48:38;168708.47;;;24.88;51.06
41688;BME280;27371;42.686;23.362;2023-06-14T12:51:03;168707.13;;;24.88;50.90
41688;BME280;27371;42.686;23.362;2023-06-14T12:53:29;168709.81;;;24.89;50.90
41688;BME280;27371;42.686;23.362;2023-06-14T12:55:54;168670.78;;;24.74;51.12